Time;durP1;ratioP1;P1;durP2;ratioP2;P2;SDS_P1;SDS_P2;PMS_P1;PMS_P2;Temp;Humidity;BMP_temperature;BMP_pressure;BME280_temperature;BME280_humidity;BME280_pressure;Samples;Min_cycle;Max_cycle;Signal;HPM_P1;HPM_P2
2024/04/12 00:01:20;;;;;;;33.60;25.23;;;14.40;99.90;;;;;;5531931;26;20282;-81
2024/04/12 00:03:52;;;;;;;27.17;20.92;;;14.40;99.90;;;;;;5536220;25;20269;-80
2024/04/12 00:06:18;;;;;;;28.55;20.10;;;14.40;99.90;;;;;;5528867;25;20230;-79
2024/04/12 00:08:49;;;;;;;27.90;21.63;;;14.40;99.90;;;;;;5534729;26;20273;-81
2024/04/12 00:11:16;;;;;;;31.33;22.45;;;14.40;99.90;;;;;;5518777;26;20483;-80
2024/04/12 00:13:46;;;;;;;39.13;25.58;;;14.40;99.90;;;;;;5521380;26;20324;-80
2024/04/12 00:16:16;;;;;;;38.45;24.60;;;14.30;99.90;;;;;;5492287;26;20231;-81
2024/04/12 00:18:48;;;;;;;30.80;22.85;;;14.20;99.90;;;;;;5505842;26;20229;-80
2024/04/12 00:21:14;;;;;;;42.88;25.83;;;14.20;99.90;;;;;;5505844;26;20268;-79
2024/04/12 00:23:43;;;;;;;34.22;25.30;;;14.20;99.90;;;;;;5519801;25;20274;-80
2024/04/12 00:26:11;;;;;;;34.72;24.60;;;14.20;99.90;;;;;;5504025;25;20983;-80
2024/04/12 00:28:41;;;;;;;32.13;22.38;;;14.20;99.90;;;;;;5528773;25;20215;-81
2024/04/12 00:31:13;;;;;;;38.70;26.08;;;14.30;99.90;;;;;;5506374;26;20231;-81
2024/04/12 00:33:41;;;;;;;34.45;26.17;;;14.20;99.90;;;;;;5523077;26;20267;-80
2024/04/12 00:36:11;;;;;;;31.77;23.35;;;14.30;99.90;;;;;;5512000;26;20261;-80
2024/04/12 00:38:41;;;;;;;36.05;26.65;;;14.30;99.90;;;;;;5513937;26;20227;-80
2024/04/12 00:41:11;;;;;;;41.45;30.90;;;14.40;99.90;;;;;;5512395;26;20249;-80
2024/04/12 00:43:48;;;;;;;36.63;26.77;;;14.40;99.90;;;;;;5523859;26;20276;-81
2024/04/12 00:46:17;;;;;;;37.67;26.90;;;14.40;99.90;;;;;;5507652;26;20227;-80
2024/04/12 00:48:46;;;;;;;43.03;30.13;;;14.40;99.90;;;;;;5507853;26;20281;-79
2024/04/12 00:51:17;;;;;;;34.60;27.27;;;14.40;99.90;;;;;;5501177;25;20230;-80
2024/04/12 00:53:51;;;;;;;38.15;27.05;;;14.40;99.90;;;;;;5530127;26;20272;-81
2024/04/12 00:56:17;;;;;;;38.97;30.10;;;14.40;99.90;;;;;;5529171;25;20271;-79
2024/04/12 00:58:47;;;;;;;34.60;27.90;;;14.40;99.90;;;;;;5515869;26;20231;-80
2024/04/12 01:01:17;;;;;;;41.85;31.50;;;14.40;99.90;;;;;;5494388;26;20519;-80
2024/04/12 01:03:49;;;;;;;33.13;26.27;;;14.50;99.90;;;;;;5522604;26;20234;-80
2024/04/12 01:06:24;;;;;;;47.03;32.33;;;14.60;99.90;;;;;;5523313;25;20265;-80
2024/04/12 01:08:54;;;;;;;30.92;25.70;;;14.60;99.90;;;;;;5509739;26;20230;-80
2024/04/12 01:11:21;;;;;;;46.72;33.80;;;14.60;99.90;;;;;;5518992;26;20264;-81
2024/04/12 01:13:51;;;;;;;38.53;28.33;;;14.50;99.90;;;;;;5530430;25;20232;-80
2024/04/12 01:16:17;;;;;;;44.47;33.60;;;14.50;99.90;;;;;;5527033;26;20313;-80
2024/04/12 01:18:46;;;;;;;51.35;35.20;;;14.40;99.90;;;;;;5525371;26;20388;-80
2024/04/12 01:21:12;;;;;;;46.45;33.00;;;14.40;99.90;;;;;;5496623;26;20265;-80
2024/04/12 01:23:48;;;;;;;42.97;31.43;;;14.40;99.90;;;;;;5527155;26;20642;-81
2024/04/12 01:26:17;;;;;;;53.90;36.90;;;14.40;99.90;;;;;;5502657;26;20455;-80
2024/04/12 01:28:48;;;;;;;49.97;37.10;;;14.30;99.90;;;;;;5519112;25;20539;-79
2024/04/12 01:31:15;;;;;;;52.17;37.60;;;14.40;99.90;;;;;;5490012;26;20579;-79
2024/04/12 01:33:48;;;;;;;52.22;35.53;;;14.30;99.90;;;;;;5503251;26;20303;-80
2024/04/12 01:36:17;;;;;;;43.05;29.80;;;14.30;99.90;;;;;;5504325;26;20231;-81
2024/04/12 01:38:53;;;;;;;51.15;35.03;;;14.30;99.90;;;;;;5528346;26;20239;-79
2024/04/12 01:41:22;;;;;;;52.65;35.42;;;14.30;99.90;;;;;;5506264;26;20230;-80
2024/04/12 01:43:52;;;;;;;55.20;38.35;;;14.30;99.90;;;;;;5519135;26;20739;-81
2024/04/12 01:46:21;;;;;;;45.50;33.95;;;14.20;99.90;;;;;;5510789;26;20229;-80
2024/04/12 01:48:50;;;;;;;59.65;38.97;;;14.20;99.90;;;;;;5532216;25;20273;-80
2024/04/12 01:51:16;;;;;;;54.05;36.00;;;14.20;99.90;;;;;;5512167;26;20239;-80
2024/04/12 01:53:45;;;;;;;45.00;32.30;;;14.20;99.90;;;;;;5513803;26;20277;-80
2024/04/12 01:56:14;;;;;;;48.15;35.70;;;14.30;99.90;;;;;;5519862;26;20217;-80
2024/04/12 01:58:45;;;;;;;42.47;33.25;;;14.30;99.90;;;;;;5512477;25;20275;-80
2024/04/12 02:01:11;;;;;;;50.92;37.60;;;14.40;99.90;;;;;;5483178;25;20281;-80
2024/04/12 02:03:43;;;;;;;48.58;35.45;;;14.40;99.90;;;;;;5503328;25;20223;-80
2024/04/12 02:06:09;;;;;;;44.92;33.83;;;14.40;99.90;;;;;;5517343;25;20230;-79
2024/04/12 02:08:38;;;;;;;58.67;39.17;;;14.40;99.90;;;;;;5529829;25;20210;-80
2024/04/12 02:11:06;;;;;;;41.33;33.60;;;14.30;99.90;;;;;;5526122;25;20504;-80
2024/04/12 02:13:40;;;;;;;51.75;37.75;;;14.30;99.90;;;;;;5511730;25;20231;-81
2024/04/12 02:16:11;;;;;;;38.83;29.10;;;14.30;99.90;;;;;;5525825;25;20278;-79
2024/04/12 02:18:44;;;;;;;50.27;35.87;;;14.40;99.90;;;;;;5519568;25;20264;-79
2024/04/12 02:21:10;;;;;;;57.65;33.60;;;14.40;99.90;;;;;;5514657;26;20513;-79
2024/04/12 02:23:40;;;;;;;45.22;34.03;;;14.40;99.90;;;;;;5529241;26;20310;-80
2024/04/12 02:26:08;;;;;;;45.03;35.22;;;14.40;99.90;;;;;;5509984;26;20330;-79
2024/04/12 02:28:39;;;;;;;53.70;36.83;;;14.40;99.90;;;;;;5517569;26;20222;-80
2024/04/12 02:31:08;;;;;;;43.00;34.03;;;14.30;99.90;;;;;;5542779;26;20266;-80
2024/04/12 02:33:38;;;;;;;48.63;34.15;;;14.40;99.90;;;;;;5541080;26;20740;-81
2024/04/12 02:36:11;;;;;;;46.75;31.95;;;14.40;99.90;;;;;;5538392;26;20233;-80
2024/04/12 02:38:40;;;;;;;46.83;35.50;;;14.40;99.90;;;;;;5536766;25;20230;-79
2024/04/12 02:41:13;;;;;;;41.70;32.45;;;14.40;99.90;;;;;;5506750;26;20238;-80
2024/04/12 02:43:42;;;;;;;47.95;34.10;;;14.30;99.90;;;;;;5526644;26;20273;-79
2024/04/12 02:46:11;;;;;;;43.75;34.28;;;14.30;99.90;;;;;;5539655;26;20226;-79
2024/04/12 02:48:43;;;;;;;41.85;29.48;;;14.30;99.90;;;;;;5513456;26;20230;-79
2024/04/12 02:51:12;;;;;;;36.22;28.80;;;14.40;99.90;;;;;;5533720;26;20337;-79
2024/04/12 02:53:42;;;;;;;40.55;30.17;;;14.40;99.90;;;;;;5505233;26;20243;-79
2024/04/12 02:56:11;;;;;;;36.53;28.85;;;14.50;99.90;;;;;;5534234;26;20277;-80
2024/04/12 02:58:41;;;;;;;39.05;30.05;;;14.40;99.90;;;;;;5533020;26;20311;-80
2024/04/12 03:01:10;;;;;;;41.05;30.52;;;14.40;99.90;;;;;;5522463;25;20292;-80
2024/04/12 03:03:41;;;;;;;43.88;32.45;;;14.50;99.90;;;;;;5535537;25;20282;-83
2024/04/12 03:06:10;;;;;;;44.22;33.00;;;14.40;99.90;;;;;;5528309;25;20238;-81
2024/04/12 03:08:39;;;;;;;45.63;28.42;;;14.40;99.90;;;;;;5542598;26;20230;-80
2024/04/12 03:11:21;;;;;;;32.88;27.15;;;14.40;99.90;;;;;;5540334;26;20226;-80
2024/04/12 03:13:51;;;;;;;49.05;33.28;;;14.40;99.90;;;;;;5528824;26;20604;-80
2024/04/12 03:16:20;;;;;;;41.40;30.33;;;14.40;99.90;;;;;;5543528;26;20273;-81
2024/04/12 03:18:51;;;;;;;45.38;33.72;;;14.40;99.90;;;;;;5540251;25;20226;-81
2024/04/12 03:21:18;;;;;;;36.88;28.20;;;14.40;99.90;;;;;;5515926;26;20233;-79
2024/04/12 03:23:49;;;;;;;41.63;32.05;;;14.40;99.90;;;;;;5546203;25;20230;-79
2024/04/12 03:26:18;;;;;;;34.20;28.50;;;14.40;99.90;;;;;;5514667;25;20226;-80
2024/04/12 03:28:49;;;;;;;36.28;27.40;;;14.50;99.90;;;;;;5533075;25;20302;-80
2024/04/12 03:31:17;;;;;;;37.08;28.85;;;14.50;99.90;;;;;;5520024;25;20230;-80
2024/04/12 03:33:48;;;;;;;33.50;26.30;;;14.50;99.90;;;;;;5532208;26;20286;-79
2024/04/12 03:36:39;;;;;;;38.72;29.10;;;14.50;99.90;;;;;;5546460;25;20339;-80
2024/04/12 03:39:30;;;;;;;35.38;24.63;;;14.50;99.90;;;;;;5543542;26;20737;-80
2024/04/12 03:41:58;;;;;;;37.28;28.50;;;14.60;99.90;;;;;;5529113;26;20250;-80
2024/04/12 03:44:30;;;;;;;43.00;31.92;;;14.50;99.90;;;;;;5544243;25;20276;-80
2024/04/12 03:46:59;;;;;;;32.80;28.23;;;14.60;99.90;;;;;;5527349;26;20234;-80
2024/04/12 03:49:31;;;;;;;34.08;27.52;;;14.50;99.90;;;;;;5531297;26;20223;-81
2024/04/12 03:51:57;;;;;;;33.45;25.95;;;14.60;99.90;;;;;;5542773;25;20230;-79
2024/04/12 03:54:29;;;;;;;37.90;29.92;;;14.50;99.90;;;;;;5547641;25;20269;-78
2024/04/12 03:56:57;;;;;;;35.08;28.75;;;14.50;99.90;;;;;;5547203;26;20290;-80
2024/04/12 03:59:28;;;;;;;45.10;27.85;;;14.50;99.90;;;;;;5544240;26;20235;-79
2024/04/12 04:01:57;;;;;;;33.88;27.77;;;14.40;99.90;;;;;;5515041;26;20243;-80
2024/04/12 04:04:37;;;;;;;34.83;25.15;;;14.50;99.90;;;;;;5518473;26;20258;-79
2024/04/12 04:07:06;;;;;;;37.67;27.47;;;14.40;99.90;;;;;;5503597;26;20231;-79
2024/04/12 04:09:35;;;;;;;40.17;26.67;;;14.40;99.90;;;;;;5512038;26;20483;-81
2024/04/12 04:12:02;;;;;;;41.33;27.85;;;14.40;99.90;;;;;;5519136;26;20245;-79
2024/04/12 04:14:32;;;;;;;31.48;25.27;;;14.40;99.90;;;;;;5520443;26;20239;-80
2024/04/12 04:17:01;;;;;;;29.45;23.05;;;14.40;99.90;;;;;;5522440;25;20279;-80
2024/04/12 04:19:34;;;;;;;26.70;22.25;;;14.40;99.90;;;;;;5520185;26;20231;-80
2024/04/12 04:22:01;;;;;;;37.05;25.33;;;14.60;99.90;;;;;;5527928;26;20235;-81
2024/04/12 04:24:33;;;;;;;26.77;21.02;;;14.50;99.90;;;;;;5519323;25;20281;-81
2024/04/12 04:26:58;;;;;;;29.15;22.13;;;14.60;99.90;;;;;;5531021;26;20250;-80
2024/04/12 04:29:27;;;;;;;31.17;23.97;;;14.60;99.90;;;;;;5517646;26;20261;-81
2024/04/12 04:31:54;;;;;;;30.23;21.83;;;14.60;99.90;;;;;;5509171;26;20472;-81
2024/04/12 04:34:25;;;;;;;33.58;23.60;;;14.50;99.90;;;;;;5514854;26;20227;-80
2024/04/12 04:36:55;;;;;;;27.95;21.75;;;14.50;99.90;;;;;;5497585;26;20231;-81
2024/04/12 04:39:24;;;;;;;29.85;21.67;;;14.50;99.90;;;;;;5522167;26;20235;-80
2024/04/12 04:41:53;;;;;;;23.75;18.85;;;14.60;99.90;;;;;;5511775;26;20215;-80
2024/04/12 04:44:22;;;;;;;28.70;18.67;;;14.70;99.90;;;;;;5534862;26;20257;-80
2024/04/12 04:46:49;;;;;;;27.17;19.98;;;14.70;99.90;;;;;;5548244;25;20238;-80
2024/04/12 04:49:19;;;;;;;23.27;17.97;;;14.70;99.90;;;;;;5498129;26;20235;-80
2024/04/12 04:51:45;;;;;;;22.17;17.83;;;14.70;99.90;;;;;;5534316;26;20454;-79
2024/04/12 04:54:15;;;;;;;22.17;17.30;;;14.60;99.90;;;;;;5539945;25;20245;-82
2024/04/12 04:56:43;;;;;;;22.02;16.92;;;14.70;99.90;;;;;;5507883;26;20273;-81
2024/04/12 04:59:16;;;;;;;20.73;16.92;;;14.70;99.90;;;;;;5504170;26;20615;-81
2024/04/12 05:01:44;;;;;;;27.90;19.85;;;14.70;99.90;;;;;;5516853;25;20247;-79
2024/04/12 05:04:15;;;;;;;27.80;20.02;;;14.70;99.90;;;;;;5534201;26;20288;-81
2024/04/12 05:06:42;;;;;;;19.55;14.98;;;14.70;99.90;;;;;;5499770;26;20274;-83
2024/04/12 05:09:12;;;;;;;22.38;17.20;;;14.70;99.90;;;;;;5516146;26;20319;-83
2024/04/12 05:11:38;;;;;;;21.75;16.90;;;14.70;99.90;;;;;;5530106;26;20234;-82
2024/04/12 05:14:13;;;;;;;19.50;15.50;;;14.70;99.90;;;;;;5529700;26;20231;-85
2024/04/12 05:16:42;;;;;;;21.95;15.52;;;14.80;99.90;;;;;;5510261;26;20468;-82
2024/04/12 05:19:12;;;;;;;26.30;17.10;;;14.60;99.90;;;;;;5513404;25;20234;-83
2024/04/12 05:21:40;;;;;;;22.15;17.35;;;14.60;99.90;;;;;;5518091;25;20332;-84
2024/04/12 05:24:11;;;;;;;21.20;16.80;;;14.60;99.90;;;;;;5512887;26;20226;-84
2024/04/12 05:26:37;;;;;;;20.63;15.88;;;14.60;99.90;;;;;;5516461;26;20230;-82
2024/04/12 05:29:07;;;;;;;21.13;15.80;;;14.60;99.90;;;;;;5527478;26;20754;-82
2024/04/12 05:31:33;;;;;;;21.75;14.98;;;14.60;99.90;;;;;;5498514;25;20463;-80
2024/04/12 05:34:05;;;;;;;19.40;14.73;;;14.60;99.90;;;;;;5514717;26;20238;-81
2024/04/12 05:36:33;;;;;;;20.10;14.57;;;14.60;99.90;;;;;;5540393;26;20466;-81
2024/04/12 05:39:08;;;;;;;22.75;15.15;;;14.60;99.90;;;;;;5501597;26;20279;-82
2024/04/12 05:41:36;;;;;;;21.10;16.08;;;14.60;99.90;;;;;;5471706;25;20280;-80
2024/04/12 05:44:06;;;;;;;17.90;14.68;;;14.60;99.90;;;;;;5463216;26;20299;-81
2024/04/12 05:46:33;;;;;;;23.60;14.90;;;14.60;99.90;;;;;;5483709;26;20267;-80
2024/04/12 05:49:09;;;;;;;27.25;15.20;;;14.60;99.90;;;;;;5498905;26;20250;-78
2024/04/12 05:51:37;;;;;;;18.00;12.90;;;14.50;99.90;;;;;;5496594;26;20242;-80
2024/04/12 05:54:10;;;;;;;17.55;14.52;;;14.60;99.90;;;;;;5492774;25;20516;-80
2024/04/12 05:56:39;;;;;;;16.30;13.93;;;14.70;99.90;;;;;;5511023;25;20220;-81
2024/04/12 05:59:13;;;;;;;17.50;13.65;;;14.70;99.90;;;;;;5527772;25;20241;-81
2024/04/12 06:01:43;;;;;;;16.10;13.48;;;14.70;99.90;;;;;;5508855;25;20295;-83
2024/04/12 06:04:19;;;;;;;14.93;12.43;;;14.60;99.90;;;;;;5514489;25;20220;-81
2024/04/12 06:06:45;;;;;;;20.15;13.00;;;14.70;99.90;;;;;;5508984;26;20367;-79
2024/04/12 06:09:19;;;;;;;16.65;12.52;;;14.70;99.90;;;;;;5509158;26;20235;-79
2024/04/12 06:11:50;;;;;;;16.80;14.17;;;14.70;99.90;;;;;;5514194;25;20240;-81
2024/04/12 06:14:20;;;;;;;14.82;12.27;;;14.80;99.90;;;;;;5509629;26;20493;-81
2024/04/12 06:16:47;;;;;;;17.53;12.20;;;14.80;99.90;;;;;;5525081;25;20231;-81
2024/04/12 06:19:19;;;;;;;20.30;13.38;;;14.90;99.90;;;;;;5509815;25;20462;-79
2024/04/12 06:21:45;;;;;;;15.70;13.33;;;14.90;99.90;;;;;;5489207;26;20240;-79
2024/04/12 06:24:16;;;;;;;19.60;13.60;;;14.80;99.90;;;;;;5507835;26;20452;-81
2024/04/12 06:26:47;;;;;;;14.68;11.65;;;14.90;99.90;;;;;;5514928;25;20471;-82
2024/04/12 06:29:17;;;;;;;21.27;14.18;;;14.90;99.90;;;;;;5507202;25;20250;-79
2024/04/12 06:31:44;;;;;;;18.85;13.52;;;14.80;99.90;;;;;;5510236;25;20247;-80
2024/04/12 06:34:17;;;;;;;20.35;15.15;;;14.80;99.90;;;;;;5508754;25;20275;-81
2024/04/12 06:36:46;;;;;;;16.88;13.32;;;14.80;99.90;;;;;;5500691;26;20281;-82
2024/04/12 06:39:15;;;;;;;14.38;12.20;;;14.80;99.90;;;;;;5506956;26;20278;-80
2024/04/12 06:41:45;;;;;;;17.42;13.68;;;14.80;99.90;;;;;;5523215;26;20230;-83
2024/04/12 06:44:19;;;;;;;21.83;12.65;;;14.80;99.90;;;;;;5514867;25;20232;-80
2024/04/12 06:46:48;;;;;;;17.67;14.80;;;14.80;99.90;;;;;;5515856;25;20231;-81
2024/04/12 06:49:19;;;;;;;14.43;12.27;;;14.80;99.90;;;;;;5507497;26;20240;-82
2024/04/12 06:52:09;;;;;;;17.00;11.50;;;14.90;99.90;;;;;;5506942;26;20231;-80
2024/04/12 06:54:41;;;;;;;15.00;11.55;;;15.00;99.90;;;;;;5509728;26;20379;-80
2024/04/12 06:57:07;;;;;;;18.83;11.27;;;15.00;99.90;;;;;;5511420;26;20274;-80
2024/04/12 06:59:40;;;;;;;14.95;11.57;;;15.10;99.90;;;;;;5500045;26;20236;-80
2024/04/12 07:02:08;;;;;;;14.80;11.40;;;15.00;99.90;;;;;;5496858;26;20330;-83
2024/04/12 07:04:38;;;;;;;21.02;13.10;;;15.10;99.90;;;;;;5509392;26;20561;-82
2024/04/12 07:07:07;;;;;;;19.43;11.13;;;15.20;99.90;;;;;;5502914;26;20232;-83
2024/04/12 07:09:37;;;;;;;15.63;12.60;;;15.30;99.90;;;;;;5496908;26;20473;-82
2024/04/12 07:12:05;;;;;;;14.73;12.63;;;15.30;99.90;;;;;;5489822;26;20461;-79
2024/04/12 07:14:36;;;;;;;12.97;11.23;;;15.30;99.90;;;;;;5511898;25;20444;-80
2024/04/12 07:17:19;;;;;;;13.20;11.70;;;15.30;99.90;;;;;;5512768;25;20460;-78
2024/04/12 07:19:50;;;;;;;12.50;10.60;;;15.30;99.90;;;;;;5513306;26;20228;-80
2024/04/12 07:22:21;;;;;;;12.37;9.47;;;15.20;99.90;;;;;;5513328;25;20511;-80
2024/04/12 07:24:50;;;;;;;14.30;10.60;;;15.30;99.90;;;;;;5497557;25;20472;-80
2024/04/12 07:27:17;;;;;;;15.20;10.15;;;15.20;99.90;;;;;;5520833;25;20226;-82
2024/04/12 07:29:46;;;;;;;12.07;10.80;;;15.20;99.90;;;;;;5537684;26;20238;-83
2024/04/12 07:32:14;;;;;;;12.85;10.10;;;15.30;99.90;;;;;;5529315;26;20248;-82
2024/04/12 07:34:49;;;;;;;12.07;10.77;;;15.30;99.90;;;;;;5510481;26;20244;-81
2024/04/12 07:37:27;;;;;;;12.20;10.82;;;15.30;99.90;;;;;;5540547;25;20513;-80
2024/04/12 07:40:15;;;;;;;15.60;10.82;;;15.30;99.90;;;;;;5521003;25;20236;-80
2024/04/12 07:42:46;;;;;;;12.00;10.63;;;15.30;99.90;;;;;;5508771;25;20235;-81
2024/04/12 07:45:22;;;;;;;10.75;9.65;;;15.30;99.90;;;;;;5512393;25;20464;-82
2024/04/12 07:47:52;;;;;;;12.85;11.23;;;15.40;99.90;;;;;;5512003;26;20454;-82
2024/04/12 07:50:29;;;;;;;12.07;9.67;;;15.50;99.90;;;;;;5523758;26;20579;-84
2024/04/12 07:53:10;;;;;;;11.00;9.80;;;15.60;99.90;;;;;;5494888;26;20475;-82
2024/04/12 07:55:40;;;;;;;12.20;10.40;;;15.50;99.90;;;;;;5498302;26;20833;-82
2024/04/12 07:58:08;;;;;;;10.37;9.27;;;15.70;99.90;;;;;;5507249;26;20460;-82
2024/04/12 08:00:45;;;;;;;11.23;9.67;;;15.60;99.90;;;;;;5517851;26;20462;-82
2024/04/12 08:03:15;;;;;;;12.40;9.73;;;15.50;99.90;;;;;;5504053;26;20460;-82
2024/04/12 08:06:03;;;;;;;11.93;10.30;;;15.50;99.90;;;;;;5522736;26;20518;-85
2024/04/12 08:08:43;;;;;;;13.32;11.60;;;15.40;99.90;;;;;;5511882;26;20279;-84
2024/04/12 08:11:31;;;;;;;11.43;10.23;;;15.30;99.90;;;;;;5490894;26;20231;-82
2024/04/12 08:14:05;;;;;;;13.15;11.43;;;15.30;99.90;;;;;;5515228;26;20321;-82
2024/04/12 08:16:37;;;;;;;12.60;10.47;;;15.40;99.90;;;;;;5515066;26;20245;-82
2024/04/12 08:19:11;;;;;;;13.13;11.80;;;15.40;99.90;;;;;;5513124;25;20466;-80
2024/04/12 08:21:41;;;;;;;11.43;10.13;;;15.40;99.90;;;;;;5491820;26;20464;-80
2024/04/12 08:24:14;;;;;;;10.50;9.43;;;15.40;99.90;;;;;;5512881;25;20274;-83
2024/04/12 08:26:45;;;;;;;16.07;11.53;;;15.40;99.90;;;;;;5516400;26;20466;-84
2024/04/12 08:29:20;;;;;;;11.70;10.47;;;15.30;99.90;;;;;;5518247;26;20478;-84
2024/04/12 08:31:50;;;;;;;13.80;11.40;;;15.30;99.90;;;;;;5502075;26;20971;-83
2024/04/12 08:34:16;;;;;;;15.48;12.68;;;15.40;99.90;;;;;;5505640;26;20456;-78
2024/04/12 08:36:49;;;;;;;9.57;8.57;;;15.40;99.90;;;;;;5481803;26;20269;-78
2024/04/12 08:39:29;;;;;;;12.75;10.27;;;15.50;99.90;;;;;;5506490;25;20519;-80
2024/04/12 08:42:04;;;;;;;9.57;8.57;;;15.50;99.90;;;;;;5518454;26;20309;-80
2024/04/12 08:44:30;;;;;;;10.80;9.65;;;15.50;99.90;;;;;;5484229;26;20452;-82
2024/04/12 08:47:16;;;;;;;9.90;8.57;;;15.60;99.90;;;;;;5496214;26;20270;-81
2024/04/12 08:49:45;;;;;;;9.90;7.37;;;15.60;99.90;;;;;;5510514;26;20490;-83
2024/04/12 08:52:24;;;;;;;11.83;9.23;;;15.70;99.90;;;;;;5503299;26;20474;-81
2024/04/12 08:54:54;;;;;;;9.47;8.47;;;15.70;99.90;;;;;;5532698;25;20467;-82
2024/04/12 08:57:24;;;;;;;10.47;8.43;;;15.70;99.90;;;;;;5510029;26;20462;-83
2024/04/12 08:59:51;;;;;;;8.37;6.70;;;15.70;99.90;;;;;;5522281;25;20463;-82
2024/04/12 09:02:23;;;;;;;10.13;8.77;;;15.70;99.90;;;;;;5538847;25;20494;-83
2024/04/12 09:04:52;;;;;;;15.32;10.05;;;15.70;99.90;;;;;;5529897;25;20474;-80
2024/04/12 09:07:23;;;;;;;14.10;9.70;;;15.80;99.90;;;;;;5538197;26;20270;-84
2024/04/12 09:09:56;;;;;;;11.57;9.43;;;15.60;99.90;;;;;;5509031;26;20464;-81
2024/04/12 09:12:25;;;;;;;13.98;9.70;;;15.50;99.90;;;;;;5502941;26;20263;-81
2024/04/12 09:14:53;;;;;;;12.63;11.40;;;15.40;99.90;;;;;;5533464;25;20220;-82
2024/04/12 09:17:26;;;;;;;11.90;10.50;;;15.30;99.90;;;;;;5516599;26;20569;-82
2024/04/12 09:19:52;;;;;;;12.57;10.00;;;15.30;99.90;;;;;;5527837;26;20280;-84
2024/04/12 09:22:23;;;;;;;11.07;9.77;;;15.30;99.90;;;;;;5512386;26;20459;-81
2024/04/12 09:24:49;;;;;;;13.50;11.70;;;15.40;99.90;;;;;;5528530;25;20468;-84
2024/04/12 09:27:22;;;;;;;16.60;12.40;;;15.50;99.90;;;;;;5519538;26;20606;-83
2024/04/12 09:29:54;;;;;;;14.93;11.30;;;15.50;99.90;;;;;;5502975;26;20526;-83
2024/04/12 09:35:13;;;;;;;11.60;10.40;;;15.40;99.90;;;;;;5500157;25;20709;-82
2024/04/12 09:37:42;;;;;;;15.50;12.00;;;15.60;99.90;;;;;;5524909;26;20634;-83
2024/04/12 09:40:24;;;;;;;14.03;10.30;;;15.60;99.90;;;;;;5539402;25;20471;-81
2024/04/12 10:38:42;;;;;;;8.00;6.73;;;19.40;99.90;;;;;;5503934;26;20490;-80
2024/04/12 10:41:10;;;;;;;8.80;6.80;;;19.50;99.90;;;;;;5509765;26;20469;-81
2024/04/12 10:43:41;;;;;;;7.73;6.10;;;19.30;99.90;;;;;;5515836;25;20596;-81
2024/04/12 10:46:11;;;;;;;8.73;7.37;;;19.50;99.90;;;;;;5504678;26;20468;-80
2024/04/12 10:48:42;;;;;;;9.73;7.63;;;19.60;99.90;;;;;;5493760;26;20573;-82
2024/04/12 10:51:14;;;;;;;8.33;7.53;;;19.50;99.90;;;;;;5498262;26;20449;-83
2024/04/12 10:53:41;;;;;;;8.80;6.27;;;19.50;99.90;;;;;;5500615;25;21020;-82
2024/04/12 10:56:11;;;;;;;8.00;5.90;;;19.40;99.90;;;;;;5496606;26;20467;-81
2024/04/12 10:58:47;;;;;;;9.17;6.60;;;19.40;99.90;;;;;;5515389;26;20535;-82
2024/04/12 11:01:16;;;;;;;8.40;6.50;;;19.60;99.90;;;;;;5524332;26;20523;-82
2024/04/12 11:03:56;;;;;;;10.63;7.17;;;19.60;99.90;;;;;;5502631;26;20471;-84
2024/04/12 11:06:30;;;;;;;6.17;5.57;;;19.60;99.90;;;;;;5507149;26;20573;-83
2024/04/12 11:09:00;;;;;;;8.80;6.53;;;19.70;99.90;;;;;;5538917;25;20469;-81
2024/04/12 11:11:55;;;;;;;6.63;6.03;;;19.70;99.90;;;;;;5519505;25;20499;-86
2024/04/12 11:14:27;;;;;;;7.20;5.70;;;19.60;99.90;;;;;;5523591;26;20468;-81
2024/04/12 11:33:31;;;;;;;11.17;8.30;;;20.10;99.90;;;;;;5497249;26;20520;-83
2024/04/12 11:36:10;;;;;;;11.67;7.80;;;20.20;99.90;;;;;;5496709;26;20518;-84
2024/04/12 11:38:39;;;;;;;9.90;7.97;;;20.20;99.90;;;;;;5491908;26;20474;-79
2024/04/12 11:41:15;;;;;;;11.73;8.50;;;20.20;99.90;;;;;;5523105;26;20473;-80
2024/04/12 11:43:44;;;;;;;10.37;7.20;;;20.40;99.90;;;;;;5533085;25;20525;-82
2024/04/12 11:46:14;;;;;;;9.30;7.50;;;20.60;99.90;;;;;;5502967;26;20514;-83
2024/04/12 11:48:42;;;;;;;8.60;7.13;;;20.80;99.90;;;;;;5513154;26;20521;-83
2024/04/12 11:51:15;;;;;;;9.60;7.20;;;21.00;99.90;;;;;;5517221;26;20865;-83
2024/04/12 11:53:42;;;;;;;8.47;7.50;;;21.10;99.90;;;;;;5511516;26;20479;-82
2024/04/12 11:56:13;;;;;;;9.07;6.90;;;20.80;99.90;;;;;;5498567;26;20551;-82
2024/04/12 11:58:43;;;;;;;10.77;8.47;;;20.90;99.90;;;;;;5513403;25;20474;-83
2024/04/12 12:01:13;;;;;;;10.40;8.53;;;20.90;99.90;;;;;;5530032;26;20525;-82
2024/04/12 12:03:39;;;;;;;9.07;7.97;;;20.90;99.90;;;;;;5535366;25;20829;-82
2024/04/12 12:06:08;;;;;;;11.40;9.40;;;20.70;99.90;;;;;;5509027;26;20473;-83
2024/04/12 12:08:41;;;;;;;10.70;9.23;;;20.60;99.90;;;;;;5506715;26;21008;-82
2024/04/12 12:11:10;;;;;;;11.00;9.07;;;20.80;99.90;;;;;;5518149;26;20624;-82
2024/04/12 12:13:37;;;;;;;11.80;10.00;;;20.70;99.90;;;;;;5514664;25;20501;-82
2024/04/12 12:16:06;;;;;;;13.03;10.30;;;20.60;99.90;;;;;;5497946;26;20477;-81
2024/04/12 12:18:35;;;;;;;12.97;9.20;;;20.60;99.90;;;;;;5511118;26;20926;-83
2024/04/12 12:21:03;;;;;;;11.20;9.47;;;20.70;99.90;;;;;;5537163;25;20514;-80
2024/04/12 12:23:29;;;;;;;15.80;10.07;;;20.40;99.90;;;;;;5505882;25;20457;-78
2024/04/12 12:26:02;;;;;;;11.30;8.63;;;20.40;99.90;;;;;;5533001;25;20556;-79
2024/04/12 12:28:28;;;;;;;14.47;9.20;;;20.40;99.90;;;;;;5497762;25;20461;-78
2024/04/12 12:30:57;;;;;;;12.47;10.83;;;20.60;99.90;;;;;;5511241;25;20513;-79
2024/04/12 12:33:24;;;;;;;13.27;10.60;;;20.70;99.90;;;;;;5511118;25;20503;-79
2024/04/12 12:35:54;;;;;;;13.10;9.27;;;20.90;99.90;;;;;;5534787;26;20520;-82
2024/04/12 12:38:21;;;;;;;11.57;10.43;;;20.90;99.90;;;;;;5505899;26;20597;-82
2024/04/12 12:40:49;;;;;;;11.83;10.40;;;20.70;99.90;;;;;;5520732;25;20659;-81
2024/04/12 12:43:19;;;;;;;13.40;12.00;;;20.80;99.90;;;;;;5507533;26;20467;-81
2024/04/12 12:45:48;;;;;;;12.23;10.53;;;20.90;99.90;;;;;;5503744;26;20513;-83
2024/04/12 12:48:19;;;;;;;17.07;10.60;;;20.80;99.90;;;;;;5505238;26;20465;-82
2024/04/12 12:50:50;;;;;;;13.90;10.70;;;20.80;99.90;;;;;;5500407;26;20513;-82
2024/04/12 12:53:20;;;;;;;13.80;10.50;;;20.70;99.90;;;;;;5513192;26;20516;-83
2024/04/12 12:55:48;;;;;;;11.37;10.27;;;20.80;99.90;;;;;;5512481;26;20483;-83
2024/04/12 12:58:18;;;;;;;12.77;10.10;;;20.90;99.90;;;;;;5522559;26;20521;-84
2024/04/12 13:00:50;;;;;;;12.47;10.50;;;21.10;99.90;;;;;;5506912;26;20536;-80
2024/04/12 13:03:17;;;;;;;12.80;10.90;;;21.10;99.90;;;;;;5522303;26;20466;-82
2024/04/12 13:05:48;;;;;;;15.40;10.80;;;21.20;99.90;;;;;;5506754;26;20548;-81
2024/04/12 13:08:15;;;;;;;19.30;10.20;;;21.20;99.90;;;;;;5514498;25;20637;-82
2024/04/12 13:10:46;;;;;;;10.47;9.37;;;21.30;99.90;;;;;;5510007;26;20523;-83
2024/04/12 13:13:17;;;;;;;13.63;11.33;;;21.20;99.90;;;;;;5522136;26;21010;-84
2024/04/12 13:15:54;;;;;;;10.83;9.73;;;21.10;99.90;;;;;;5521511;25;20470;-85
2024/04/12 13:18:21;;;;;;;12.27;9.70;;;21.20;99.90;;;;;;5516775;26;20479;-84
2024/04/12 13:20:50;;;;;;;13.43;9.90;;;21.20;99.90;;;;;;5498571;26;20478;-84
2024/04/12 13:23:17;;;;;;;12.07;10.37;;;21.30;99.90;;;;;;5518156;26;20505;-82
2024/04/12 13:25:46;;;;;;;11.10;9.90;;;21.20;99.90;;;;;;5523601;25;20635;-82
2024/04/12 13:28:12;;;;;;;13.00;10.10;;;21.20;99.90;;;;;;5498537;26;20513;-81
2024/04/12 13:30:42;;;;;;;12.73;10.80;;;21.20;99.90;;;;;;5499933;25;20469;-82
2024/04/12 13:33:14;;;;;;;12.90;9.97;;;21.10;99.90;;;;;;5508178;26;20521;-82
2024/04/12 13:35:44;;;;;;;12.57;9.97;;;21.00;99.90;;;;;;5532950;26;20484;-84
2024/04/12 13:38:12;;;;;;;12.23;10.83;;;20.80;99.90;;;;;;5522127;26;20589;-85
2024/04/12 13:40:45;;;;;;;13.87;11.43;;;20.80;99.90;;;;;;5500090;26;20507;-83
2024/04/12 13:43:14;;;;;;;17.10;11.23;;;20.70;99.90;;;;;;5514069;26;20461;-83
2024/04/12 13:51:18;;;;;;;11.20;10.07;;;21.00;99.90;;;;;;5523784;26;20498;-84
2024/04/12 13:53:50;;;;;;;11.10;10.10;;;20.90;99.90;;;;;;5512335;26;20470;-83
2024/04/12 13:59:10;;;;;;;9.80;8.57;;;20.90;99.90;;;;;;5514810;26;20464;-82
2024/04/12 14:01:40;;;;;;;12.53;10.60;;;21.00;99.90;;;;;;5503420;26;20470;-82
2024/04/12 14:04:17;;;;;;;13.20;9.73;;;21.10;99.40;;;;;;5526432;26;20564;-84
2024/04/12 14:06:46;;;;;;;11.07;9.40;;;21.00;99.60;;;;;;5517455;25;20541;-83
2024/04/12 14:09:21;;;;;;;11.13;9.00;;;21.10;99.90;;;;;;5504541;25;20530;-85
2024/04/12 14:11:51;;;;;;;10.50;8.70;;;21.20;99.90;;;;;;5503448;25;20466;-82